sensor_id;sensor_type;location;lat;lon;timestamp;P1;durP1;ratioP1;P2;durP2;ratioP2
26742;SDS011;14341;51.256;22.478;2023-02-28T00:00:16;25.42;;;12.73;;
26742;SDS011;14341;51.256;22.478;2023-02-28T00:03:20;23.80;;;13.13;;
26742;SDS011;14341;51.256;22.478;2023-02-28T00:06:23;25.65;;;13.40;;
26742;SDS011;14341;51.256;22.478;2023-02-28T00:09:28;30.27;;;14.68;;
26742;SDS011;14341;51.256;22.478;2023-02-28T00:15:37;31.05;;;15.13;;
26742;SDS011;14341;51.256;22.478;2023-02-28T00:18:40;33.10;;;16.13;;
26742;SDS011;14341;51.256;22.478;2023-02-28T00:21:44;36.05;;;16.75;;
26742;SDS011;14341;51.256;22.478;2023-02-28T00:24:47;35.33;;;17.27;;
26742;SDS011;14341;51.256;22.478;2023-02-28T00:27:52;32.83;;;16.25;;
26742;SDS011;14341;51.256;22.478;2023-02-28T00:30:55;33.90;;;16.83;;
26742;SDS011;14341;51.256;22.478;2023-02-28T00:34:01;38.83;;;18.45;;
26742;SDS011;14341;51.256;22.478;2023-02-28T00:37:05;37.75;;;18.27;;
26742;SDS011;14341;51.256;22.478;2023-02-28T00:40:10;42.17;;;18.33;;
26742;SDS011;14341;51.256;22.478;2023-02-28T00:43:15;39.25;;;18.73;;
26742;SDS011;14341;51.256;22.478;2023-02-28T00:46:18;42.83;;;20.85;;
26742;SDS011;14341;51.256;22.478;2023-02-28T00:49:22;43.88;;;20.90;;
26742;SDS011;14341;51.256;22.478;2023-02-28T00:52:25;43.92;;;20.55;;
26742;SDS011;14341;51.256;22.478;2023-02-28T00:55:29;48.53;;;19.67;;
26742;SDS011;14341;51.256;22.478;2023-02-28T00:58:33;49.63;;;20.98;;
26742;SDS011;14341;51.256;22.478;2023-02-28T01:01:36;54.00;;;22.15;;
26742;SDS011;14341;51.256;22.478;2023-02-28T01:04:40;51.67;;;22.63;;
26742;SDS011;14341;51.256;22.478;2023-02-28T01:07:43;42.25;;;20.90;;
26742;SDS011;14341;51.256;22.478;2023-02-28T01:10:47;50.83;;;23.15;;
26742;SDS011;14341;51.256;22.478;2023-02-28T01:13:52;43.00;;;21.38;;
26742;SDS011;14341;51.256;22.478;2023-02-28T01:16:56;42.95;;;19.83;;
26742;SDS011;14341;51.256;22.478;2023-02-28T01:19:59;46.40;;;19.35;;
26742;SDS011;14341;51.256;22.478;2023-02-28T01:23:02;43.90;;;21.17;;
26742;SDS011;14341;51.256;22.478;2023-02-28T01:26:08;42.08;;;20.38;;
26742;SDS011;14341;51.256;22.478;2023-02-28T01:29:15;42.58;;;20.50;;
26742;SDS011;14341;51.256;22.478;2023-02-28T01:32:19;45.00;;;22.08;;
26742;SDS011;14341;51.256;22.478;2023-02-28T01:35:24;42.28;;;20.77;;
26742;SDS011;14341;51.256;22.478;2023-02-28T01:38:28;42.70;;;21.58;;
26742;SDS011;14341;51.256;22.478;2023-02-28T01:41:33;47.85;;;23.17;;
26742;SDS011;14341;51.256;22.478;2023-02-28T01:48:21;43.45;;;22.58;;
26742;SDS011;14341;51.256;22.478;2023-02-28T01:51:29;43.00;;;21.20;;
26742;SDS011;14341;51.256;22.478;2023-02-28T01:54:38;42.70;;;21.58;;
26742;SDS011;14341;51.256;22.478;2023-02-28T01:57:42;44.15;;;20.95;;
26742;SDS011;14341;51.256;22.478;2023-02-28T02:00:51;47.67;;;20.92;;
26742;SDS011;14341;51.256;22.478;2023-02-28T02:03:55;49.78;;;24.63;;
26742;SDS011;14341;51.256;22.478;2023-02-28T02:07:00;79.28;;;37.60;;
26742;SDS011;14341;51.256;22.478;2023-02-28T02:10:10;65.82;;;33.92;;
26742;SDS011;14341;51.256;22.478;2023-02-28T02:13:20;112.05;;;52.65;;
26742;SDS011;14341;51.256;22.478;2023-02-28T02:16:55;103.40;;;50.53;;
26742;SDS011;14341;51.256;22.478;2023-02-28T02:24:18;64.60;;;31.13;;
26742;SDS011;14341;51.256;22.478;2023-02-28T02:31:25;60.05;;;27.80;;
26742;SDS011;14341;51.256;22.478;2023-02-28T02:34:58;52.00;;;26.05;;
26742;SDS011;14341;51.256;22.478;2023-02-28T02:38:08;53.83;;;25.25;;
26742;SDS011;14341;51.256;22.478;2023-02-28T02:41:18;45.63;;;24.35;;
26742;SDS011;14341;51.256;22.478;2023-02-28T02:44:28;45.35;;;24.08;;
26742;SDS011;14341;51.256;22.478;2023-02-28T02:47:36;41.67;;;23.73;;
26742;SDS011;14341;51.256;22.478;2023-02-28T02:50:43;46.08;;;22.80;;
26742;SDS011;14341;51.256;22.478;2023-02-28T02:53:50;40.33;;;22.25;;
26742;SDS011;14341;51.256;22.478;2023-02-28T02:57:00;40.97;;;22.90;;
26742;SDS011;14341;51.256;22.478;2023-02-28T03:00:08;43.35;;;23.80;;
26742;SDS011;14341;51.256;22.478;2023-02-28T03:03:15;45.10;;;23.30;;
26742;SDS011;14341;51.256;22.478;2023-02-28T03:06:23;52.58;;;25.48;;
26742;SDS011;14341;51.256;22.478;2023-02-28T03:09:27;53.70;;;25.38;;
26742;SDS011;14341;51.256;22.478;2023-02-28T03:12:32;55.55;;;26.60;;
26742;SDS011;14341;51.256;22.478;2023-02-28T03:15:47;53.45;;;25.00;;
26742;SDS011;14341;51.256;22.478;2023-02-28T03:19:02;53.75;;;26.00;;
26742;SDS011;14341;51.256;22.478;2023-02-28T03:22:23;52.10;;;24.52;;
26742;SDS011;14341;51.256;22.478;2023-02-28T03:25:41;48.28;;;25.38;;
26742;SDS011;14341;51.256;22.478;2023-02-28T03:28:57;48.53;;;24.13;;
26742;SDS011;14341;51.256;22.478;2023-02-28T03:32:08;47.33;;;24.23;;
26742;SDS011;14341;51.256;22.478;2023-02-28T03:35:23;50.33;;;23.98;;
26742;SDS011;14341;51.256;22.478;2023-02-28T03:38:31;45.20;;;24.83;;
26742;SDS011;14341;51.256;22.478;2023-02-28T03:41:38;46.55;;;24.30;;
26742;SDS011;14341;51.256;22.478;2023-02-28T03:44:46;44.75;;;24.95;;
26742;SDS011;14341;51.256;22.478;2023-02-28T03:47:53;48.08;;;24.65;;
26742;SDS011;14341;51.256;22.478;2023-02-28T03:51:00;44.97;;;23.92;;
26742;SDS011;14341;51.256;22.478;2023-02-28T03:54:08;44.38;;;24.05;;
26742;SDS011;14341;51.256;22.478;2023-02-28T03:57:17;46.67;;;24.17;;
26742;SDS011;14341;51.256;22.478;2023-02-28T04:00:27;41.00;;;23.23;;
26742;SDS011;14341;51.256;22.478;2023-02-28T04:03:34;43.08;;;24.08;;
26742;SDS011;14341;51.256;22.478;2023-02-28T04:06:38;40.50;;;22.48;;
26742;SDS011;14341;51.256;22.478;2023-02-28T04:09:43;42.67;;;23.33;;
26742;SDS011;14341;51.256;22.478;2023-02-28T04:12:47;45.72;;;24.48;;
26742;SDS011;14341;51.256;22.478;2023-02-28T04:15:50;49.08;;;25.55;;
26742;SDS011;14341;51.256;22.478;2023-02-28T04:18:53;42.25;;;25.23;;
26742;SDS011;14341;51.256;22.478;2023-02-28T04:22:03;47.67;;;26.77;;
26742;SDS011;14341;51.256;22.478;2023-02-28T04:25:08;51.28;;;28.40;;
26742;SDS011;14341;51.256;22.478;2023-02-28T04:28:11;46.03;;;26.85;;
26742;SDS011;14341;51.256;22.478;2023-02-28T04:31:14;48.60;;;27.63;;
26742;SDS011;14341;51.256;22.478;2023-02-28T04:34:17;55.95;;;30.85;;
26742;SDS011;14341;51.256;22.478;2023-02-28T04:37:22;56.80;;;31.42;;
26742;SDS011;14341;51.256;22.478;2023-02-28T04:40:31;57.63;;;31.75;;
26742;SDS011;14341;51.256;22.478;2023-02-28T04:43:34;56.97;;;31.15;;
26742;SDS011;14341;51.256;22.478;2023-02-28T04:46:38;55.00;;;30.88;;
26742;SDS011;14341;51.256;22.478;2023-02-28T04:49:41;63.55;;;31.65;;
26742;SDS011;14341;51.256;22.478;2023-02-28T04:52:44;56.88;;;31.25;;
26742;SDS011;14341;51.256;22.478;2023-02-28T04:55:49;52.58;;;29.63;;
26742;SDS011;14341;51.256;22.478;2023-02-28T04:58:52;54.78;;;29.77;;
26742;SDS011;14341;51.256;22.478;2023-02-28T05:01:56;60.13;;;30.98;;
26742;SDS011;14341;51.256;22.478;2023-02-28T05:04:59;57.28;;;30.98;;
26742;SDS011;14341;51.256;22.478;2023-02-28T05:08:02;52.63;;;29.98;;
26742;SDS011;14341;51.256;22.478;2023-02-28T05:11:14;50.83;;;28.40;;
26742;SDS011;14341;51.256;22.478;2023-02-28T05:14:19;53.88;;;27.65;;
26742;SDS011;14341;51.256;22.478;2023-02-28T05:17:22;47.08;;;27.25;;
26742;SDS011;14341;51.256;22.478;2023-02-28T05:20:25;46.63;;;27.08;;
26742;SDS011;14341;51.256;22.478;2023-02-28T05:23:28;49.15;;;27.60;;
26742;SDS011;14341;51.256;22.478;2023-02-28T05:26:35;54.35;;;29.67;;
26742;SDS011;14341;51.256;22.478;2023-02-28T05:29:39;52.17;;;28.08;;
26742;SDS011;14341;51.256;22.478;2023-02-28T05:32:48;57.30;;;29.17;;
26742;SDS011;14341;51.256;22.478;2023-02-28T05:35:53;52.70;;;28.90;;
26742;SDS011;14341;51.256;22.478;2023-02-28T05:38:56;54.33;;;28.90;;
26742;SDS011;14341;51.256;22.478;2023-02-28T05:42:01;62.50;;;31.08;;
26742;SDS011;14341;51.256;22.478;2023-02-28T05:45:04;55.40;;;29.90;;
26742;SDS011;14341;51.256;22.478;2023-02-28T05:48:09;60.47;;;30.65;;
26742;SDS011;14341;51.256;22.478;2023-02-28T05:51:12;64.15;;;31.52;;
26742;SDS011;14341;51.256;22.478;2023-02-28T05:54:15;66.40;;;31.08;;
26742;SDS011;14341;51.256;22.478;2023-02-28T05:57:20;69.78;;;34.15;;
26742;SDS011;14341;51.256;22.478;2023-02-28T06:00:25;77.65;;;34.67;;
26742;SDS011;14341;51.256;22.478;2023-02-28T06:03:29;75.55;;;35.40;;
26742;SDS011;14341;51.256;22.478;2023-02-28T06:06:32;86.28;;;39.25;;
26742;SDS011;14341;51.256;22.478;2023-02-28T06:09:37;89.97;;;41.55;;
26742;SDS011;14341;51.256;22.478;2023-02-28T06:12:42;93.53;;;41.88;;
26742;SDS011;14341;51.256;22.478;2023-02-28T06:15:45;104.45;;;47.35;;
26742;SDS011;14341;51.256;22.478;2023-02-28T06:18:48;110.53;;;48.20;;
26742;SDS011;14341;51.256;22.478;2023-02-28T06:21:52;110.57;;;51.28;;
26742;SDS011;14341;51.256;22.478;2023-02-28T06:24:55;115.65;;;49.67;;
26742;SDS011;14341;51.256;22.478;2023-02-28T06:28:00;85.78;;;42.58;;
26742;SDS011;14341;51.256;22.478;2023-02-28T06:31:07;99.38;;;42.75;;
26742;SDS011;14341;51.256;22.478;2023-02-28T06:34:13;83.03;;;37.97;;
26742;SDS011;14341;51.256;22.478;2023-02-28T06:37:17;80.10;;;35.55;;
26742;SDS011;14341;51.256;22.478;2023-02-28T06:40:20;79.85;;;36.28;;
26742;SDS011;14341;51.256;22.478;2023-02-28T06:43:27;64.53;;;33.67;;
26742;SDS011;14341;51.256;22.478;2023-02-28T06:46:30;66.43;;;32.78;;
26742;SDS011;14341;51.256;22.478;2023-02-28T06:49:35;64.20;;;32.20;;
26742;SDS011;14341;51.256;22.478;2023-02-28T06:52:38;62.83;;;30.98;;
26742;SDS011;14341;51.256;22.478;2023-02-28T06:55:41;53.90;;;28.00;;
26742;SDS011;14341;51.256;22.478;2023-02-28T06:58:46;52.72;;;26.33;;
26742;SDS011;14341;51.256;22.478;2023-02-28T07:01:50;46.65;;;24.88;;
26742;SDS011;14341;51.256;22.478;2023-02-28T07:04:54;44.53;;;23.15;;
26742;SDS011;14341;51.256;22.478;2023-02-28T07:07:57;49.35;;;23.83;;
26742;SDS011;14341;51.256;22.478;2023-02-28T07:11:00;42.90;;;23.02;;
26742;SDS011;14341;51.256;22.478;2023-02-28T07:14:06;42.05;;;23.13;;
26742;SDS011;14341;51.256;22.478;2023-02-28T07:17:10;38.63;;;22.02;;
26742;SDS011;14341;51.256;22.478;2023-02-28T07:20:13;45.40;;;22.50;;
26742;SDS011;14341;51.256;22.478;2023-02-28T07:23:16;40.13;;;20.25;;
26742;SDS011;14341;51.256;22.478;2023-02-28T07:26:20;36.75;;;19.60;;
26742;SDS011;14341;51.256;22.478;2023-02-28T07:29:25;30.90;;;17.55;;
26742;SDS011;14341;51.256;22.478;2023-02-28T07:32:28;26.88;;;15.90;;
26742;SDS011;14341;51.256;22.478;2023-02-28T07:35:31;28.75;;;15.90;;
26742;SDS011;14341;51.256;22.478;2023-02-28T07:38:35;27.38;;;14.38;;
26742;SDS011;14341;51.256;22.478;2023-02-28T07:41:39;28.08;;;14.77;;
26742;SDS011;14341;51.256;22.478;2023-02-28T07:44:46;24.10;;;14.38;;
26742;SDS011;14341;51.256;22.478;2023-02-28T07:47:49;27.67;;;14.50;;
26742;SDS011;14341;51.256;22.478;2023-02-28T07:50:54;26.55;;;14.18;;
26742;SDS011;14341;51.256;22.478;2023-02-28T07:53:57;28.25;;;13.50;;
26742;SDS011;14341;51.256;22.478;2023-02-28T07:57:01;23.13;;;12.38;;
26742;SDS011;14341;51.256;22.478;2023-02-28T08:00:07;22.80;;;12.90;;
26742;SDS011;14341;51.256;22.478;2023-02-28T08:03:17;22.85;;;11.90;;
26742;SDS011;14341;51.256;22.478;2023-02-28T08:06:21;25.98;;;13.18;;
26742;SDS011;14341;51.256;22.478;2023-02-28T08:09:25;17.13;;;11.05;;
26742;SDS011;14341;51.256;22.478;2023-02-28T08:12:29;19.13;;;11.35;;
26742;SDS011;14341;51.256;22.478;2023-02-28T08:15:33;22.15;;;13.18;;
26742;SDS011;14341;51.256;22.478;2023-02-28T08:18:37;24.60;;;13.88;;
26742;SDS011;14341;51.256;22.478;2023-02-28T08:21:40;23.52;;;13.55;;
26742;SDS011;14341;51.256;22.478;2023-02-28T08:24:44;21.83;;;12.95;;
26742;SDS011;14341;51.256;22.478;2023-02-28T08:27:47;26.38;;;13.70;;
26742;SDS011;14341;51.256;22.478;2023-02-28T08:30:54;31.60;;;13.52;;
26742;SDS011;14341;51.256;22.478;2023-02-28T08:33:57;23.60;;;13.60;;
26742;SDS011;14341;51.256;22.478;2023-02-28T08:37:01;22.73;;;13.57;;
26742;SDS011;14341;51.256;22.478;2023-02-28T08:40:04;22.63;;;12.82;;
26742;SDS011;14341;51.256;22.478;2023-02-28T08:43:08;22.80;;;13.25;;
26742;SDS011;14341;51.256;22.478;2023-02-28T08:46:13;23.25;;;12.82;;
26742;SDS011;14341;51.256;22.478;2023-02-28T08:49:16;18.45;;;10.38;;
26742;SDS011;14341;51.256;22.478;2023-02-28T08:52:20;20.35;;;10.65;;
26742;SDS011;14341;51.256;22.478;2023-02-28T08:55:23;18.77;;;10.80;;
26742;SDS011;14341;51.256;22.478;2023-02-28T08:58:26;17.30;;;10.57;;
26742;SDS011;14341;51.256;22.478;2023-02-28T09:01:31;17.90;;;9.95;;
26742;SDS011;14341;51.256;22.478;2023-02-28T09:04:34;20.40;;;11.70;;
26742;SDS011;14341;51.256;22.478;2023-02-28T09:07:37;24.45;;;13.52;;
26742;SDS011;14341;51.256;22.478;2023-02-28T09:10:41;18.23;;;11.38;;
26742;SDS011;14341;51.256;22.478;2023-02-28T09:13:44;24.50;;;12.02;;
26742;SDS011;14341;51.256;22.478;2023-02-28T09:16:49;20.00;;;12.20;;
26742;SDS011;14341;51.256;22.478;2023-02-28T09:19:53;22.13;;;12.55;;
26742;SDS011;14341;51.256;22.478;2023-02-28T09:22:56;25.38;;;12.48;;
26742;SDS011;14341;51.256;22.478;2023-02-28T09:25:59;24.25;;;12.40;;
26742;SDS011;14341;51.256;22.478;2023-02-28T09:29:03;17.50;;;11.85;;
26742;SDS011;14341;51.256;22.478;2023-02-28T09:32:07;20.45;;;12.25;;
26742;SDS011;14341;51.256;22.478;2023-02-28T09:35:11;17.75;;;10.85;;
26742;SDS011;14341;51.256;22.478;2023-02-28T09:38:17;20.42;;;12.00;;
26742;SDS011;14341;51.256;22.478;2023-02-28T09:41:21;20.90;;;12.15;;
26742;SDS011;14341;51.256;22.478;2023-02-28T09:44:28;19.58;;;11.95;;
26742;SDS011;14341;51.256;22.478;2023-02-28T09:47:36;19.38;;;11.52;;
26742;SDS011;14341;51.256;22.478;2023-02-28T09:50:43;17.48;;;11.07;;
26742;SDS011;14341;51.256;22.478;2023-02-28T09:53:50;23.98;;;12.77;;
26742;SDS011;14341;51.256;22.478;2023-02-28T09:57:04;22.83;;;11.98;;
26742;SDS011;14341;51.256;22.478;2023-02-28T10:00:13;21.00;;;12.35;;
26742;SDS011;14341;51.256;22.478;2023-02-28T10:03:29;22.75;;;12.30;;
26742;SDS011;14341;51.256;22.478;2023-02-28T10:06:39;17.17;;;10.82;;
26742;SDS011;14341;51.256;22.478;2023-02-28T10:09:47;21.98;;;12.20;;
26742;SDS011;14341;51.256;22.478;2023-02-28T10:12:55;19.02;;;11.52;;
26742;SDS011;14341;51.256;22.478;2023-02-28T10:16:02;22.42;;;12.18;;
26742;SDS011;14341;51.256;22.478;2023-02-28T10:19:11;21.95;;;12.85;;
26742;SDS011;14341;51.256;22.478;2023-02-28T10:22:20;17.90;;;11.57;;
26742;SDS011;14341;51.256;22.478;2023-02-28T10:25:29;20.02;;;12.20;;
26742;SDS011;14341;51.256;22.478;2023-02-28T10:28:32;23.67;;;12.27;;
26742;SDS011;14341;51.256;22.478;2023-02-28T10:31:35;20.35;;;12.25;;
26742;SDS011;14341;51.256;22.478;2023-02-28T10:34:40;21.17;;;12.35;;
26742;SDS011;14341;51.256;22.478;2023-02-28T10:37:44;22.67;;;12.43;;
26742;SDS011;14341;51.256;22.478;2023-02-28T10:40:48;20.90;;;12.55;;
26742;SDS011;14341;51.256;22.478;2023-02-28T10:43:53;21.98;;;13.15;;
26742;SDS011;14341;51.256;22.478;2023-02-28T10:47:15;19.05;;;12.35;;
26742;SDS011;14341;51.256;22.478;2023-02-28T10:50:29;22.25;;;13.15;;
26742;SDS011;14341;51.256;22.478;2023-02-28T10:53:36;20.40;;;12.77;;
26742;SDS011;14341;51.256;22.478;2023-02-28T10:57:08;21.52;;;13.57;;
26742;SDS011;14341;51.256;22.478;2023-02-28T11:00:26;26.60;;;13.73;;
26742;SDS011;14341;51.256;22.478;2023-02-28T11:03:35;22.65;;;13.80;;
26742;SDS011;14341;51.256;22.478;2023-02-28T11:06:40;21.48;;;13.30;;
26742;SDS011;14341;51.256;22.478;2023-02-28T11:09:44;20.88;;;12.38;;
26742;SDS011;14341;51.256;22.478;2023-02-28T11:12:53;18.88;;;12.95;;
26742;SDS011;14341;51.256;22.478;2023-02-28T11:16:02;22.10;;;13.57;;
26742;SDS011;14341;51.256;22.478;2023-02-28T11:19:15;21.63;;;13.30;;
26742;SDS011;14341;51.256;22.478;2023-02-28T11:22:24;21.30;;;13.60;;
26742;SDS011;14341;51.256;22.478;2023-02-28T11:25:31;22.38;;;13.50;;
26742;SDS011;14341;51.256;22.478;2023-02-28T11:28:37;22.45;;;13.95;;
26742;SDS011;14341;51.256;22.478;2023-02-28T11:31:42;23.42;;;14.90;;
26742;SDS011;14341;51.256;22.478;2023-02-28T11:34:46;20.10;;;13.90;;
26742;SDS011;14341;51.256;22.478;2023-02-28T11:38:07;20.08;;;14.00;;
26742;SDS011;14341;51.256;22.478;2023-02-28T11:48:15;21.70;;;14.20;;
26742;SDS011;14341;51.256;22.478;2023-02-28T11:51:23;23.73;;;14.35;;
26742;SDS011;14341;51.256;22.478;2023-02-28T11:54:43;23.92;;;14.95;;
26742;SDS011;14341;51.256;22.478;2023-02-28T11:58:20;21.83;;;14.68;;
26742;SDS011;14341;51.256;22.478;2023-02-28T12:01:36;22.95;;;15.65;;
26742;SDS011;14341;51.256;22.478;2023-02-28T12:04:51;21.48;;;14.80;;
26742;SDS011;14341;51.256;22.478;2023-02-28T12:08:03;23.00;;;15.25;;
26742;SDS011;14341;51.256;22.478;2023-02-28T12:11:23;23.13;;;15.57;;
26742;SDS011;14341;51.256;22.478;2023-02-28T12:14:47;24.38;;;15.50;;
26742;SDS011;14341;51.256;22.478;2023-02-28T12:18:12;23.10;;;15.27;;
26742;SDS011;14341;51.256;22.478;2023-02-28T12:21:28;20.90;;;15.00;;
26742;SDS011;14341;51.256;22.478;2023-02-28T12:25:18;25.40;;;16.35;;
26742;SDS011;14341;51.256;22.478;2023-02-28T12:28:28;26.02;;;17.27;;
26742;SDS011;14341;51.256;22.478;2023-02-28T12:31:36;24.75;;;16.98;;
26742;SDS011;14341;51.256;22.478;2023-02-28T12:34:44;28.63;;;17.10;;
26742;SDS011;14341;51.256;22.478;2023-02-28T12:37:51;28.10;;;17.77;;
26742;SDS011;14341;51.256;22.478;2023-02-28T12:41:00;25.80;;;16.73;;
26742;SDS011;14341;51.256;22.478;2023-02-28T12:44:07;25.85;;;16.15;;
26742;SDS011;14341;51.256;22.478;2023-02-28T12:47:15;22.25;;;16.10;;
26742;SDS011;14341;51.256;22.478;2023-02-28T12:50:20;23.25;;;16.48;;
26742;SDS011;14341;51.256;22.478;2023-02-28T12:53:25;24.60;;;16.83;;
26742;SDS011;14341;51.256;22.478;2023-02-28T12:56:35;24.02;;;16.60;;
26742;SDS011;14341;51.256;22.478;2023-02-28T12:59:48;22.88;;;15.60;;
26742;SDS011;14341;51.256;22.478;2023-02-28T13:03:01;25.27;;;15.57;;
26742;SDS011;14341;51.256;22.478;2023-02-28T13:06:34;26.05;;;17.15;;
26742;SDS011;14341;51.256;22.478;2023-02-28T13:09:53;23.20;;;15.67;;
26742;SDS011;14341;51.256;22.478;2023-02-28T13:12:58;25.63;;;16.13;;
26742;SDS011;14341;51.256;22.478;2023-02-28T13:16:08;25.58;;;16.88;;
26742;SDS011;14341;51.256;22.478;2023-02-28T13:19:16;25.02;;;16.20;;
26742;SDS011;14341;51.256;22.478;2023-02-28T13:22:37;25.75;;;16.08;;
26742;SDS011;14341;51.256;22.478;2023-02-28T13:25:51;24.60;;;16.20;;
26742;SDS011;14341;51.256;22.478;2023-02-28T13:28:59;21.90;;;15.18;;
26742;SDS011;14341;51.256;22.478;2023-02-28T13:35:35;23.65;;;14.55;;
26742;SDS011;14341;51.256;22.478;2023-02-28T13:38:41;22.27;;;15.65;;
26742;SDS011;14341;51.256;22.478;2023-02-28T13:41:46;22.70;;;15.43;;
26742;SDS011;14341;51.256;22.478;2023-02-28T13:48:27;24.63;;;15.98;;
26742;SDS011;14341;51.256;22.478;2023-02-28T13:51:36;19.05;;;13.95;;
26742;SDS011;14341;51.256;22.478;2023-02-28T13:54:45;22.65;;;14.93;;
26742;SDS011;14341;51.256;22.478;2023-02-28T13:58:08;20.40;;;14.55;;
26742;SDS011;14341;51.256;22.478;2023-02-28T14:01:23;21.63;;;14.13;;
26742;SDS011;14341;51.256;22.478;2023-02-28T14:04:47;22.63;;;15.60;;
26742;SDS011;14341;51.256;22.478;2023-02-28T14:08:02;24.70;;;16.02;;
26742;SDS011;14341;51.256;22.478;2023-02-28T14:11:22;23.80;;;16.02;;
26742;SDS011;14341;51.256;22.478;2023-02-28T14:17:59;52.17;;;25.33;;
26742;SDS011;14341;51.256;22.478;2023-02-28T14:21:10;27.58;;;15.43;;
26742;SDS011;14341;51.256;22.478;2023-02-28T14:24:29;25.77;;;15.63;;
26742;SDS011;14341;51.256;22.478;2023-02-28T14:27:55;21.75;;;14.35;;
26742;SDS011;14341;51.256;22.478;2023-02-28T14:31:09;22.75;;;14.20;;
26742;SDS011;14341;51.256;22.478;2023-02-28T14:34:28;21.85;;;15.30;;
26742;SDS011;14341;51.256;22.478;2023-02-28T14:37:41;24.95;;;15.48;;
26742;SDS011;14341;51.256;22.478;2023-02-28T14:40:45;26.27;;;16.38;;
26742;SDS011;14341;51.256;22.478;2023-02-28T14:43:54;28.02;;;17.48;;
26742;SDS011;14341;51.256;22.478;2023-02-28T14:46:59;50.42;;;28.40;;
26742;SDS011;14341;51.256;22.478;2023-02-28T14:50:17;41.70;;;23.45;;
26742;SDS011;14341;51.256;22.478;2023-02-28T14:53:25;33.63;;;19.45;;
26742;SDS011;14341;51.256;22.478;2023-02-28T14:56:33;30.50;;;18.33;;
26742;SDS011;14341;51.256;22.478;2023-02-28T14:59:38;29.73;;;16.85;;
26742;SDS011;14341;51.256;22.478;2023-02-28T15:02:41;24.30;;;17.10;;
26742;SDS011;14341;51.256;22.478;2023-02-28T15:05:51;24.20;;;15.85;;
26742;SDS011;14341;51.256;22.478;2023-02-28T15:09:14;26.65;;;15.80;;
26742;SDS011;14341;51.256;22.478;2023-02-28T15:12:18;28.20;;;17.92;;
26742;SDS011;14341;51.256;22.478;2023-02-28T15:15:22;34.22;;;19.30;;
26742;SDS011;14341;51.256;22.478;2023-02-28T15:18:43;31.70;;;19.30;;
26742;SDS011;14341;51.256;22.478;2023-02-28T15:21:50;31.40;;;19.88;;
26742;SDS011;14341;51.256;22.478;2023-02-28T15:24:58;31.50;;;19.48;;
26742;SDS011;14341;51.256;22.478;2023-02-28T15:28:02;34.42;;;20.58;;
26742;SDS011;14341;51.256;22.478;2023-02-28T15:31:16;31.35;;;19.45;;
26742;SDS011;14341;51.256;22.478;2023-02-28T15:34:26;32.53;;;19.20;;
26742;SDS011;14341;51.256;22.478;2023-02-28T15:37:45;31.92;;;19.58;;
26742;SDS011;14341;51.256;22.478;2023-02-28T15:40:52;34.72;;;19.90;;
26742;SDS011;14341;51.256;22.478;2023-02-28T15:47:57;185.80;;;102.68;;
26742;SDS011;14341;51.256;22.478;2023-02-28T15:51:15;76.20;;;43.58;;
26742;SDS011;14341;51.256;22.478;2023-02-28T15:54:22;51.75;;;31.27;;
26742;SDS011;14341;51.256;22.478;2023-02-28T15:57:30;47.28;;;25.55;;
26742;SDS011;14341;51.256;22.478;2023-02-28T16:00:34;43.47;;;24.55;;
26742;SDS011;14341;51.256;22.478;2023-02-28T16:03:38;45.60;;;26.45;;
26742;SDS011;14341;51.256;22.478;2023-02-28T16:06:45;143.70;;;48.00;;
26742;SDS011;14341;51.256;22.478;2023-02-28T16:09:50;113.70;;;46.83;;
26742;SDS011;14341;51.256;22.478;2023-02-28T16:12:55;107.75;;;42.40;;
26742;SDS011;14341;51.256;22.478;2023-02-28T16:16:00;90.63;;;40.83;;
26742;SDS011;14341;51.256;22.478;2023-02-28T16:19:03;84.20;;;38.88;;
26742;SDS011;14341;51.256;22.478;2023-02-28T16:22:07;96.97;;;43.45;;
26742;SDS011;14341;51.256;22.478;2023-02-28T16:25:12;112.55;;;50.22;;
26742;SDS011;14341;51.256;22.478;2023-02-28T16:28:19;100.00;;;48.15;;
26742;SDS011;14341;51.256;22.478;2023-02-28T16:31:24;149.32;;;58.95;;
26742;SDS011;14341;51.256;22.478;2023-02-28T16:34:28;151.60;;;64.90;;
26742;SDS011;14341;51.256;22.478;2023-02-28T16:37:32;145.32;;;65.05;;
26742;SDS011;14341;51.256;22.478;2023-02-28T16:40:36;138.90;;;61.03;;
26742;SDS011;14341;51.256;22.478;2023-02-28T16:43:41;124.65;;;57.03;;
26742;SDS011;14341;51.256;22.478;2023-02-28T16:46:46;121.82;;;58.10;;
26742;SDS011;14341;51.256;22.478;2023-02-28T16:49:50;119.22;;;57.42;;
26742;SDS011;14341;51.256;22.478;2023-02-28T16:52:53;116.10;;;54.92;;
26742;SDS011;14341;51.256;22.478;2023-02-28T16:55:57;109.45;;;52.03;;
26742;SDS011;14341;51.256;22.478;2023-02-28T16:59:04;109.15;;;52.15;;
26742;SDS011;14341;51.256;22.478;2023-02-28T17:02:08;119.38;;;54.92;;
26742;SDS011;14341;51.256;22.478;2023-02-28T17:05:14;139.77;;;63.08;;
26742;SDS011;14341;51.256;22.478;2023-02-28T17:08:18;124.10;;;62.03;;
26742;SDS011;14341;51.256;22.478;2023-02-28T17:11:23;160.52;;;74.07;;
26742;SDS011;14341;51.256;22.478;2023-02-28T17:14:29;171.23;;;79.50;;
26742;SDS011;14341;51.256;22.478;2023-02-28T17:17:32;229.60;;;101.07;;
26742;SDS011;14341;51.256;22.478;2023-02-28T17:20:36;214.32;;;95.63;;
26742;SDS011;14341;51.256;22.478;2023-02-28T17:23:39;224.73;;;102.47;;
26742;SDS011;14341;51.256;22.478;2023-02-28T17:26:43;204.85;;;93.90;;
26742;SDS011;14341;51.256;22.478;2023-02-28T17:29:47;202.10;;;92.88;;
26742;SDS011;14341;51.256;22.478;2023-02-28T17:32:51;204.48;;;93.35;;
26742;SDS011;14341;51.256;22.478;2023-02-28T17:35:55;222.93;;;99.45;;
26742;SDS011;14341;51.256;22.478;2023-02-28T17:38:59;199.88;;;92.03;;
26742;SDS011;14341;51.256;22.478;2023-02-28T17:42:04;214.82;;;100.10;;
26742;SDS011;14341;51.256;22.478;2023-02-28T17:45:11;286.95;;;122.38;;
26742;SDS011;14341;51.256;22.478;2023-02-28T17:48:15;318.75;;;131.35;;
26742;SDS011;14341;51.256;22.478;2023-02-28T17:51:19;321.85;;;130.68;;
26742;SDS011;14341;51.256;22.478;2023-02-28T17:54:23;327.10;;;134.27;;
26742;SDS011;14341;51.256;22.478;2023-02-28T17:57:27;347.83;;;141.68;;
26742;SDS011;14341;51.256;22.478;2023-02-28T18:00:32;316.33;;;135.13;;
26742;SDS011;14341;51.256;22.478;2023-02-28T18:03:36;366.33;;;158.68;;
26742;SDS011;14341;51.256;22.478;2023-02-28T18:06:39;438.77;;;190.48;;
26742;SDS011;14341;51.256;22.478;2023-02-28T18:09:49;241.73;;;106.60;;
26742;SDS011;14341;51.256;22.478;2023-02-28T18:12:52;305.90;;;131.82;;
26742;SDS011;14341;51.256;22.478;2023-02-28T18:15:57;309.75;;;134.95;;
26742;SDS011;14341;51.256;22.478;2023-02-28T18:19:01;319.77;;;137.85;;
26742;SDS011;14341;51.256;22.478;2023-02-28T18:22:05;352.35;;;157.73;;
26742;SDS011;14341;51.256;22.478;2023-02-28T18:25:09;372.73;;;166.77;;
26742;SDS011;14341;51.256;22.478;2023-02-28T18:28:15;395.20;;;173.65;;
26742;SDS011;14341;51.256;22.478;2023-02-28T18:31:19;378.80;;;165.20;;